createdAt,value
2022-12-14T00:02:04.803Z,2.78
2022-12-14T00:04:37.380Z,3.15
2022-12-14T00:07:12.163Z,2.55
2022-12-14T00:09:45.925Z,2.53
2022-12-14T00:12:18.522Z,2.30
2022-12-14T00:14:51.090Z,2.45
2022-12-14T00:17:23.871Z,2.60
2022-12-14T00:19:56.512Z,2.35
2022-12-14T00:22:29.109Z,2.63
2022-12-14T00:25:02.800Z,2.60
2022-12-14T00:27:35.476Z,1.92
2022-12-14T00:30:08.555Z,2.25
2022-12-14T00:32:41.472Z,2.33
2022-12-14T00:35:17.735Z,2.30
2022-12-14T00:37:51.868Z,2.20
2022-12-14T00:40:24.415Z,2.40
2022-12-14T00:42:56.924Z,2.13
2022-12-14T00:45:29.761Z,2.85
2022-12-14T00:48:05.044Z,2.13
2022-12-14T00:50:37.635Z,2.17
2022-12-14T00:53:10.176Z,2.38
2022-12-14T00:55:49.113Z,2.95
2022-12-14T00:58:27.605Z,2.33
2022-12-14T01:01:03.233Z,2.22
2022-12-14T01:03:36.012Z,2.35
2022-12-14T01:06:18.278Z,3.17
2022-12-14T01:08:50.855Z,2.30
2022-12-14T01:11:23.348Z,2.15
2022-12-14T01:13:56.842Z,2.00
2022-12-14T01:16:29.549Z,1.60
2022-12-14T01:19:02.853Z,1.95
2022-12-14T01:24:09.001Z,2.03
2022-12-14T01:26:41.572Z,2.42
2022-12-14T01:29:14.258Z,1.92
2022-12-14T01:31:48.676Z,2.22
2022-12-14T01:34:22.221Z,2.30
2022-12-14T01:36:54.778Z,2.00
2022-12-14T01:39:27.445Z,1.73
2022-12-14T01:41:59.997Z,2.40
2022-12-14T01:44:32.443Z,1.75
2022-12-14T01:47:34.654Z,2.38
2022-12-14T01:50:27.670Z,2.22
2022-12-14T01:53:03.988Z,1.90
2022-12-14T01:55:48.656Z,2.03
2022-12-14T01:58:24.131Z,1.98
2022-12-14T02:00:59.639Z,2.58
2022-12-14T02:03:39.330Z,2.10
2022-12-14T02:06:33.001Z,1.83
2022-12-14T02:09:09.666Z,1.83
2022-12-14T02:12:06.693Z,2.28
2022-12-14T02:14:39.789Z,2.20
2022-12-14T02:17:14.717Z,1.95
2022-12-14T02:19:49.631Z,1.92
2022-12-14T02:22:25.189Z,1.90
2022-12-14T02:26:02.027Z,2.13
2022-12-14T02:28:43.296Z,2.33
2022-12-14T02:31:43.762Z,2.30
2022-12-14T02:34:38.005Z,2.80
2022-12-14T02:37:31.406Z,1.95
2022-12-14T02:40:18.901Z,2.45
2022-12-14T02:43:18.175Z,1.92
2022-12-14T02:46:09.486Z,2.70
2022-12-14T02:48:55.071Z,2.67
2022-12-14T02:51:33.822Z,2.97
2022-12-14T02:54:17.468Z,2.10
2022-12-14T02:56:56.428Z,2.47
2022-12-14T02:59:29.362Z,2.75
2022-12-14T03:02:03.794Z,2.85
2022-12-14T03:04:46.201Z,2.47
2022-12-14T03:07:32.375Z,2.35
2022-12-14T03:10:32.856Z,1.75
2022-12-14T03:13:09.422Z,2.50
2022-12-14T03:15:44.808Z,2.28
2022-12-14T03:18:21.996Z,2.55
2022-12-14T03:20:56.504Z,2.65
2022-12-14T03:23:34.735Z,2.53
2022-12-14T03:26:15.548Z,2.67
2022-12-14T03:28:51.546Z,2.30
2022-12-14T03:31:34.477Z,3.00
2022-12-14T03:34:13.307Z,2.72
2022-12-14T03:37:19.688Z,2.00
2022-12-14T03:39:52.449Z,2.08
2022-12-14T03:42:49.597Z,2.22
2022-12-14T03:45:32.310Z,3.10
2022-12-14T03:48:43.471Z,2.60
2022-12-14T03:51:35.892Z,2.45
2022-12-14T03:54:14.295Z,2.60
2022-12-14T03:57:09.742Z,2.95
2022-12-14T04:00:02.844Z,2.80
2022-12-14T04:03:01.041Z,4.43
2022-12-14T04:06:08.492Z,2.28
2022-12-14T04:09:03.085Z,2.58
2022-12-14T04:11:58.486Z,3.17
2022-12-14T04:14:54.580Z,3.03
2022-12-14T04:17:51.738Z,3.05
2022-12-14T04:20:53.825Z,3.00
2022-12-14T04:23:53.106Z,2.72
2022-12-14T04:26:30.793Z,2.50
2022-12-14T04:29:28.252Z,2.17
2022-12-14T04:32:25.519Z,3.10
2022-12-14T04:35:13.437Z,2.78
2022-12-14T04:37:57.490Z,2.45
2022-12-14T04:41:09.548Z,2.65
2022-12-14T04:43:59.553Z,2.90
2022-12-14T04:46:46.070Z,2.78
2022-12-14T04:49:45.537Z,2.28
2022-12-14T04:52:58.176Z,2.67
2022-12-14T04:55:50.565Z,2.67
2022-12-14T04:58:49.190Z,2.08
2022-12-14T05:01:56.640Z,2.22
2022-12-14T05:04:44.389Z,3.30
2022-12-14T05:07:35.065Z,2.22
2022-12-14T05:10:35.936Z,2.25
2022-12-14T05:13:32.493Z,3.42
2022-12-14T05:16:30.525Z,2.40
2022-12-14T05:19:07.347Z,2.92
2022-12-14T05:21:48.871Z,2.10
2022-12-14T05:24:21.583Z,2.50
2022-12-14T05:26:54.207Z,3.15
2022-12-14T05:29:26.804Z,2.50
2022-12-14T05:31:59.516Z,2.42
2022-12-14T05:34:32.077Z,2.83
2022-12-14T05:37:04.940Z,2.63
2022-12-14T05:39:37.442Z,2.88
2022-12-14T05:42:37.132Z,2.70
2022-12-14T05:45:14.593Z,2.70
2022-12-14T05:47:47.096Z,2.95
2022-12-14T05:50:19.630Z,3.20
2022-12-14T05:52:53.283Z,3.20
2022-12-14T05:55:25.881Z,3.58
2022-12-14T05:57:58.432Z,3.13
2022-12-14T06:00:30.994Z,3.47
2022-12-14T06:03:03.668Z,3.25
2022-12-14T06:05:36.340Z,3.03
2022-12-14T06:08:08.979Z,5.18
2022-12-14T06:10:56.064Z,3.58
2022-12-14T06:13:40.999Z,3.53
2022-12-14T06:16:32.019Z,3.10
2022-12-14T06:22:08.997Z,3.03
2022-12-14T06:25:18.741Z,4.30
2022-12-14T06:28:02.200Z,3.92
2022-12-14T06:30:59.386Z,4.28
2022-12-14T06:33:50.674Z,3.35
2022-12-14T06:36:43.142Z,4.32
2022-12-14T06:39:36.411Z,3.40
2022-12-14T06:42:17.900Z,3.25
2022-12-14T06:45:03.185Z,4.22
2022-12-14T06:48:08.010Z,3.42
2022-12-14T06:50:47.000Z,3.47
2022-12-14T06:53:34.868Z,3.40
2022-12-14T06:56:34.296Z,3.20
2022-12-14T06:59:23.146Z,4.07
2022-12-14T07:02:01.180Z,3.13
2022-12-14T07:04:50.923Z,4.00
2022-12-14T07:07:39.363Z,3.80
2022-12-14T07:10:16.306Z,4.20
2022-12-14T07:12:52.906Z,4.40
2022-12-14T07:15:44.377Z,3.80
2022-12-14T07:18:22.956Z,3.33
2022-12-14T07:21:13.506Z,3.65
2022-12-14T07:23:54.063Z,3.33
2022-12-14T07:26:37.622Z,3.72
2022-12-14T07:29:15.884Z,4.03
2022-12-14T07:31:57.549Z,3.70
2022-12-14T07:34:41.577Z,3.55
2022-12-14T07:37:29.511Z,4.00
2022-12-14T07:40:07.906Z,4.47
2022-12-14T07:42:45.218Z,5.20
2022-12-14T07:45:30.890Z,5.40
2022-12-14T07:48:26.414Z,5.03
2022-12-14T07:51:19.046Z,5.10
2022-12-14T07:53:53.066Z,5.25
2022-12-14T07:56:34.679Z,4.10
2022-12-14T07:59:08.745Z,4.30
2022-12-14T08:01:43.058Z,4.32
2022-12-14T08:04:19.992Z,3.60
2022-12-14T08:06:52.632Z,3.88
2022-12-14T08:09:25.312Z,3.05
2022-12-14T08:11:57.962Z,2.63
2022-12-14T08:14:30.534Z,2.25
2022-12-14T08:17:03.215Z,2.78
2022-12-14T08:19:36.556Z,2.65
2022-12-14T08:22:09.458Z,3.67
2022-12-14T08:24:42.062Z,2.67
2022-12-14T08:27:14.681Z,3.97
2022-12-14T08:29:47.302Z,3.15
2022-12-14T08:32:19.918Z,4.45
2022-12-14T08:34:53.597Z,4.47
2022-12-14T08:37:26.175Z,4.43
2022-12-14T08:39:58.776Z,3.38
2022-12-14T08:42:31.406Z,3.85
2022-12-14T08:45:04.413Z,3.30
2022-12-14T08:47:36.944Z,3.60
2022-12-14T08:50:10.425Z,2.92
2022-12-14T08:52:42.915Z,2.88
2022-12-14T08:55:15.888Z,3.00
2022-12-14T08:57:48.659Z,3.50
2022-12-14T09:00:21.446Z,2.90
2022-12-14T09:02:54.716Z,3.22
2022-12-14T09:05:27.426Z,3.05
2022-12-14T09:08:00.076Z,3.88
2022-12-14T09:10:32.747Z,4.63
2022-12-14T09:13:05.280Z,3.88
2022-12-14T09:15:37.937Z,4.25
2022-12-14T09:18:10.577Z,4.18
2022-12-14T09:20:44.268Z,4.10
2022-12-14T09:23:16.798Z,4.22
2022-12-14T09:26:03.202Z,4.40
2022-12-14T09:28:37.884Z,4.55
2022-12-14T09:31:14.945Z,4.15
2022-12-14T09:33:47.927Z,3.20
2022-12-14T09:36:23.237Z,3.55
2022-12-14T09:38:57.976Z,3.13
2022-12-14T09:41:36.536Z,2.92
2022-12-14T09:44:27.166Z,3.00
2022-12-14T09:47:36.272Z,3.45
2022-12-14T09:50:21.026Z,3.50
2022-12-14T09:52:59.586Z,3.20
2022-12-14T09:55:55.698Z,2.67
2022-12-14T09:58:30.770Z,2.90
2022-12-14T10:01:06.656Z,3.10
2022-12-14T10:04:02.438Z,2.25
2022-12-14T10:06:44.315Z,2.47
2022-12-14T10:09:41.322Z,2.63
2022-12-14T10:12:45.888Z,2.10
2022-12-14T10:15:43.332Z,2.50
2022-12-14T10:19:02.381Z,2.45
2022-12-14T10:22:12.687Z,2.40
2022-12-14T10:24:51.399Z,2.33
2022-12-14T10:27:26.740Z,2.90
2022-12-14T10:30:08.863Z,2.40
2022-12-14T10:32:52.585Z,2.63
2022-12-14T10:35:41.584Z,3.30
2022-12-14T10:38:33.057Z,2.60
2022-12-14T10:41:33.893Z,2.92
2022-12-14T10:44:21.168Z,2.40
2022-12-14T10:46:57.502Z,2.83
2022-12-14T10:49:41.600Z,3.13
2022-12-14T10:52:20.140Z,3.08
2022-12-14T10:55:25.145Z,3.08
2022-12-14T10:57:57.625Z,2.95
2022-12-14T11:00:30.413Z,2.75
2022-12-14T11:03:06.886Z,3.00
2022-12-14T11:06:05.428Z,2.63
2022-12-14T11:08:48.110Z,2.83
2022-12-14T11:11:26.237Z,2.75
2022-12-14T11:14:10.199Z,2.88
2022-12-14T11:16:43.015Z,2.95
2022-12-14T11:19:18.555Z,3.75
2022-12-14T11:22:05.279Z,3.05
2022-12-14T11:24:46.100Z,2.85
2022-12-14T11:27:21.430Z,2.92
2022-12-14T11:29:53.952Z,3.38
2022-12-14T11:32:26.718Z,2.63
2022-12-14T11:34:59.959Z,2.90
2022-12-14T11:37:33.377Z,2.83
2022-12-14T11:42:38.932Z,2.72
2022-12-14T11:45:26.730Z,3.20
2022-12-14T11:48:24.880Z,2.63
2022-12-14T11:51:12.651Z,3.33
2022-12-14T11:54:02.982Z,2.85
2022-12-14T11:56:37.452Z,2.35
2022-12-14T11:59:16.508Z,2.85
2022-12-14T12:02:14.190Z,2.30
2022-12-14T12:04:53.037Z,2.63
2022-12-14T12:07:33.242Z,2.63
2022-12-14T12:10:13.835Z,2.65
2022-12-14T12:12:55.983Z,2.67
2022-12-14T12:15:50.103Z,3.10
2022-12-14T12:18:27.346Z,2.50
2022-12-14T12:21:17.948Z,3.40
2022-12-14T12:23:56.505Z,2.80
2022-12-14T12:27:04.296Z,2.55
2022-12-14T12:29:51.736Z,2.88
2022-12-14T12:32:39.894Z,2.80
2022-12-14T12:35:17.946Z,3.00
2022-12-14T12:37:57.674Z,3.20
2022-12-14T12:40:34.776Z,2.53
2022-12-14T12:43:27.775Z,2.45
2022-12-14T12:46:05.807Z,2.38
2022-12-14T12:49:12.412Z,2.47
2022-12-14T12:51:54.679Z,2.95
2022-12-14T12:54:33.710Z,2.55
2022-12-14T12:57:10.184Z,2.53
2022-12-14T12:59:50.429Z,2.67
2022-12-14T13:02:39.358Z,2.95
2022-12-14T13:08:34.008Z,2.50
2022-12-14T13:11:26.767Z,2.65
2022-12-14T13:14:12.812Z,3.45
2022-12-14T13:16:46.834Z,2.95
2022-12-14T13:19:55.115Z,2.45
2022-12-14T13:22:31.624Z,3.50
2022-12-14T13:25:20.875Z,2.92
2022-12-14T13:28:02.808Z,3.20
2022-12-14T13:30:42.987Z,3.10
2022-12-14T13:33:34.910Z,4.47
2022-12-14T13:36:31.643Z,3.22
2022-12-14T13:39:18.905Z,3.50
2022-12-14T13:42:11.663Z,3.10
2022-12-14T13:45:02.005Z,9.43
2022-12-14T13:47:43.059Z,4.03
2022-12-14T13:50:57.574Z,5.20
2022-12-14T13:53:40.586Z,5.25
2022-12-14T13:56:32.625Z,3.55
2022-12-14T13:59:29.003Z,3.60
2022-12-14T14:02:03.789Z,3.78
2022-12-14T14:04:36.821Z,3.38
2022-12-14T14:07:38.467Z,6.07
2022-12-14T14:10:33.101Z,5.15
2022-12-14T14:13:30.471Z,7.82
2022-12-14T14:16:27.917Z,4.43
2022-12-14T14:19:13.436Z,4.55
2022-12-14T14:22:26.450Z,3.45
2022-12-14T14:25:12.507Z,3.93
2022-12-14T14:27:52.538Z,3.60
2022-12-14T14:30:30.037Z,3.03
2022-12-14T14:33:43.300Z,3.35
2022-12-14T14:36:15.194Z,3.38
2022-12-14T14:38:48.178Z,2.53
2022-12-14T14:41:28.002Z,3.38
2022-12-14T14:44:09.976Z,3.10
2022-12-14T14:46:47.758Z,3.17
2022-12-14T14:49:38.120Z,3.50
2022-12-14T14:52:41.794Z,3.17
2022-12-14T14:58:39.258Z,4.03
2022-12-14T15:01:29.661Z,3.58
2022-12-14T15:04:06.545Z,5.13
2022-12-14T15:06:44.865Z,6.18
2022-12-14T15:09:22.049Z,6.38
2022-12-14T15:12:04.354Z,4.35
2022-12-14T15:14:48.510Z,4.72
2022-12-14T15:17:24.913Z,6.55
2022-12-14T15:19:59.610Z,4.85
2022-12-14T15:22:43.048Z,4.07
2022-12-14T15:28:05.663Z,3.80
2022-12-14T15:30:38.244Z,4.20
2022-12-14T15:33:27.650Z,4.10
2022-12-14T15:36:12.186Z,3.70
2022-12-14T15:38:56.064Z,3.90
2022-12-14T15:41:30.441Z,3.42
2022-12-14T15:44:02.898Z,3.35
2022-12-14T15:46:40.480Z,3.42
2022-12-14T15:49:23.374Z,3.35
2022-12-14T15:51:57.505Z,3.88
2022-12-14T15:54:30.094Z,3.30
2022-12-14T15:57:02.708Z,3.00
2022-12-14T15:59:36.775Z,3.13
2022-12-14T16:02:20.888Z,3.08
2022-12-14T16:04:56.025Z,2.95
2022-12-14T16:07:39.884Z,3.35
2022-12-14T16:10:39.660Z,3.30
2022-12-14T16:13:31.895Z,3.47
2022-12-14T16:16:09.712Z,3.05
2022-12-14T16:18:50.803Z,4.13
2022-12-14T16:21:30.658Z,4.88
2022-12-14T16:24:23.521Z,4.95
2022-12-14T16:27:01.439Z,3.90
2022-12-14T16:29:34.749Z,4.32
2022-12-14T16:32:15.633Z,3.50
2022-12-14T16:34:59.702Z,3.58
2022-12-14T16:37:33.745Z,3.45
2022-12-14T16:40:10.646Z,3.20
2022-12-14T16:42:47.391Z,5.28
2022-12-14T16:45:55.799Z,4.30
2022-12-14T16:48:29.141Z,3.60
2022-12-14T16:51:28.550Z,5.13
2022-12-14T16:54:24.878Z,5.20
2022-12-14T16:57:21.727Z,5.20
2022-12-14T17:00:01.206Z,6.40
2022-12-14T17:02:53.082Z,5.50
2022-12-14T17:05:34.021Z,4.50
2022-12-14T17:08:08.016Z,3.80
2022-12-14T17:10:40.970Z,5.30
2022-12-14T17:13:13.491Z,4.85
2022-12-14T17:16:07.465Z,4.10
2022-12-14T17:18:41.790Z,4.47
2022-12-14T17:21:25.282Z,3.67
2022-12-14T17:24:00.634Z,3.83
2022-12-14T17:26:33.186Z,4.55
2022-12-14T17:29:16.468Z,4.32
2022-12-14T17:32:03.523Z,4.05
2022-12-14T17:34:37.769Z,5.53
2022-12-14T17:37:20.329Z,4.00
2022-12-14T17:39:53.369Z,4.88
2022-12-14T17:45:00.522Z,6.57
2022-12-14T17:47:33.147Z,6.22
2022-12-14T17:50:06.231Z,6.57
2022-12-14T17:52:38.801Z,8.23
2022-12-14T17:55:29.083Z,7.97
2022-12-14T17:58:01.723Z,6.75
2022-12-14T18:00:53.075Z,8.40
2022-12-14T18:03:25.738Z,8.32
2022-12-14T18:05:59.564Z,15.93
2022-12-14T18:08:32.351Z,9.90
2022-12-14T18:11:11.832Z,8.85
2022-12-14T18:13:47.355Z,9.23
2022-12-14T18:16:23.960Z,10.25
2022-12-14T18:18:58.247Z,9.68
2022-12-14T18:21:30.852Z,9.00
2022-12-14T18:24:06.773Z,8.40
2022-12-14T18:26:41.903Z,8.05
2022-12-14T18:29:14.552Z,8.82
2022-12-14T18:31:49.745Z,8.90
2022-12-14T18:34:22.482Z,7.75
2022-12-14T18:36:55.047Z,8.02
2022-12-14T18:39:27.664Z,8.18
2022-12-14T18:42:00.276Z,8.75
2022-12-14T18:44:32.930Z,7.38
2022-12-14T18:47:33.134Z,7.43
2022-12-14T18:49:58.236Z,7.90
2022-12-14T18:52:30.729Z,7.25
2022-12-14T18:55:03.409Z,8.45
2022-12-14T18:57:36.012Z,7.65
2022-12-14T19:00:12.602Z,6.80
2022-12-14T19:02:47.082Z,8.23
2022-12-14T19:05:26.327Z,7.70
2022-12-14T19:08:00.160Z,7.82
2022-12-14T19:10:33.839Z,8.07
2022-12-14T19:13:06.852Z,7.18
2022-12-14T19:15:39.526Z,7.75
2022-12-14T19:18:12.123Z,7.15
2022-12-14T19:20:44.673Z,6.50
2022-12-14T19:23:21.963Z,7.40
2022-12-14T19:25:54.845Z,7.03
2022-12-14T19:28:32.888Z,6.50
2022-12-14T19:31:06.238Z,7.60
2022-12-14T19:33:38.873Z,7.25
2022-12-14T19:36:13.697Z,6.80
2022-12-14T19:38:49.303Z,6.60
2022-12-14T19:41:22.228Z,7.15
2022-12-14T19:43:57.383Z,6.30
2022-12-14T19:46:30.059Z,6.55
2022-12-14T19:49:02.671Z,7.10
2022-12-14T19:51:36.444Z,6.85
2022-12-14T19:54:09.104Z,5.88
2022-12-14T19:56:41.657Z,6.57
2022-12-14T19:59:14.349Z,6.22
2022-12-14T20:01:48.426Z,5.25
2022-12-14T20:04:21.458Z,5.22
2022-12-14T20:06:54.088Z,5.05
2022-12-14T20:09:26.951Z,5.45
2022-12-14T20:11:59.535Z,5.25
2022-12-14T20:14:32.195Z,5.65
2022-12-14T20:17:04.737Z,5.07
2022-12-14T20:19:38.553Z,5.25
2022-12-14T20:22:11.148Z,6.38
2022-12-14T20:24:47.263Z,5.22
2022-12-14T20:27:20.122Z,7.43
2022-12-14T20:29:52.718Z,6.55
2022-12-14T20:32:25.283Z,4.85
2022-12-14T20:34:57.842Z,5.57
2022-12-14T20:37:30.524Z,4.80
2022-12-14T20:40:03.083Z,4.72
2022-12-14T20:42:35.639Z,3.25
2022-12-14T20:45:08.600Z,4.10
2022-12-14T20:47:41.152Z,3.95
2022-12-14T20:50:13.611Z,3.92
2022-12-14T20:52:46.436Z,3.67
2022-12-14T20:55:21.894Z,3.67
2022-12-14T20:57:54.520Z,3.58
2022-12-14T21:00:27.647Z,3.55
2022-12-14T21:03:00.373Z,3.70
2022-12-14T21:05:33.103Z,3.50
2022-12-14T21:08:05.855Z,3.22
2022-12-14T21:10:38.423Z,3.40
2022-12-14T21:13:11.056Z,3.88
2022-12-14T21:15:44.909Z,4.03
2022-12-14T21:18:17.422Z,3.38
2022-12-14T21:20:49.898Z,3.85
2022-12-14T21:23:22.405Z,4.18
2022-12-14T21:25:55.052Z,3.80
2022-12-14T21:28:32.108Z,3.58
2022-12-14T21:31:30.574Z,3.72
2022-12-14T21:34:03.305Z,4.18
2022-12-14T21:36:35.892Z,4.20
2022-12-14T21:39:08.683Z,3.42
2022-12-14T21:42:00.089Z,3.50
2022-12-14T21:44:36.875Z,3.63
2022-12-14T21:47:13.626Z,2.90
2022-12-14T21:49:47.258Z,1.90
2022-12-14T21:52:22.949Z,1.70
2022-12-14T21:54:55.838Z,1.73
2022-12-14T21:57:49.993Z,1.60
2022-12-14T22:00:23.272Z,1.30
2022-12-14T22:02:55.900Z,1.85
2022-12-14T22:05:28.473Z,1.92
2022-12-14T22:08:01.091Z,1.95
2022-12-14T22:10:33.558Z,1.92
2022-12-14T22:13:06.242Z,1.67
2022-12-14T22:15:38.775Z,1.73
2022-12-14T22:18:11.425Z,1.92
2022-12-14T22:20:43.929Z,1.60
2022-12-14T22:23:16.596Z,1.52
2022-12-14T22:25:52.164Z,1.52
2022-12-14T22:28:24.885Z,1.60
2022-12-14T22:31:01.263Z,1.70
2022-12-14T22:33:34.198Z,1.70
2022-12-14T22:36:08.211Z,1.65
2022-12-14T22:38:40.996Z,1.00
2022-12-14T22:41:15.293Z,1.17
2022-12-14T22:43:47.890Z,1.20
2022-12-14T22:46:20.653Z,1.25
2022-12-14T22:48:54.573Z,1.30
2022-12-14T22:51:29.375Z,1.27
2022-12-14T22:54:01.996Z,1.10
2022-12-14T22:56:45.950Z,1.10
2022-12-14T22:59:23.907Z,1.20
2022-12-14T23:01:56.610Z,1.00
2022-12-14T23:04:30.068Z,1.38
2022-12-14T23:07:02.554Z,1.00
2022-12-14T23:09:53.876Z,1.08
2022-12-14T23:12:44.635Z,1.30
2022-12-14T23:15:35.723Z,1.08
2022-12-14T23:18:26.932Z,1.20
2022-12-14T23:21:18.434Z,0.90
2022-12-14T23:24:09.072Z,1.10
2022-12-14T23:27:04.228Z,1.98
2022-12-14T23:29:58.175Z,0.95
2022-12-14T23:32:48.910Z,1.30
2022-12-14T23:35:39.893Z,1.52
2022-12-14T23:38:30.571Z,1.20
2022-12-14T23:41:21.841Z,1.42
2022-12-14T23:44:12.665Z,1.25
2022-12-14T23:47:03.424Z,1.52
2022-12-14T23:49:54.244Z,1.30
2022-12-14T23:52:45.065Z,1.20
2022-12-14T23:55:36.286Z,1.40
2022-12-14T23:58:33.699Z,1.30
